Time;durP1;ratioP1;P1;durP2;ratioP2;P2;SDS_P1;SDS_P2;PMS_P1;PMS_P2;Temp;Humidity;BMP_temperature;BMP_pressure;BME280_temperature;BME280_humidity;BME280_pressure;Samples;Min_cycle;Max_cycle;Signal;HPM_P1;HPM_P2
2024/04/23 00:01:37;;;;;;;1.65;1.15;;;;;;;;;;11054217;26;20029;-58
2024/04/23 00:06:38;;;;;;;1.08;0.93;;;;;;;;;;11044496;26;20052;-58
2024/04/23 00:11:39;;;;;;;1.30;1.20;;;;;;;;;;11055702;26;20127;-58
2024/04/23 00:16:40;;;;;;;2.55;0.90;;;;;;;;;;11049175;26;20107;-58
2024/04/23 00:21:41;;;;;;;5.90;1.30;;;;;;;;;;11053116;26;20001;-58
2024/04/23 00:26:55;;;;;;;1.20;1.10;;;;;;;;;;11046986;26;20418;-58
2024/04/23 00:31:56;;;;;;;1.80;1.05;;;;;;;;;;11058428;26;20004;-58
2024/04/23 00:36:59;;;;;;;1.80;1.30;;;;;;;;;;11049049;26;20021;-58
2024/04/23 00:42:00;;;;;;;1.20;1.00;;;;;;;;;;11057460;26;20000;-60
2024/04/23 00:47:02;;;;;;;1.95;1.08;;;;;;;;;;11069360;26;20502;-58
2024/04/23 00:52:03;;;;;;;1.10;1.00;;;;;;;;;;11053772;26;20011;-57
2024/04/23 00:57:04;;;;;;;1.00;1.00;;;;;;;;;;11038168;26;20072;-57
2024/04/23 01:02:06;;;;;;;1.75;1.00;;;;;;;;;;11041602;26;20635;-57
2024/04/23 01:07:07;;;;;;;2.50;1.10;;;;;;;;;;11043720;26;20340;-58
2024/04/23 01:12:08;;;;;;;2.20;1.02;;;;;;;;;;11060900;26;20078;-58
2024/04/23 01:17:11;;;;;;;2.50;1.00;;;;;;;;;;11042840;26;20429;-59
2024/04/23 01:22:28;;;;;;;1.45;1.00;;;;;;;;;;11009210;26;20093;-58
2024/04/23 01:27:29;;;;;;;0.80;0.80;;;;;;;;;;10961934;26;20045;-59
2024/04/23 01:32:35;;;;;;;1.48;0.80;;;;;;;;;;10948148;26;20006;-59
2024/04/23 01:37:39;;;;;;;0.90;0.90;;;;;;;;;;10932754;26;20001;-58
2024/04/23 01:42:42;;;;;;;1.20;1.10;;;;;;;;;;10945853;26;19998;-59
2024/04/23 01:47:44;;;;;;;0.88;0.88;;;;;;;;;;10945323;26;20005;-58
2024/04/23 01:52:45;;;;;;;2.78;1.00;;;;;;;;;;10977769;26;20020;-58
2024/04/23 01:57:46;;;;;;;0.90;0.85;;;;;;;;;;10978423;26;19998;-58
2024/04/23 02:02:49;;;;;;;1.25;1.05;;;;;;;;;;10984488;26;20009;-58
2024/04/23 02:07:51;;;;;;;0.95;0.85;;;;;;;;;;10978921;26;20002;-58
2024/04/23 02:12:52;;;;;;;0.80;0.80;;;;;;;;;;10978938;26;20141;-58
2024/04/23 02:17:53;;;;;;;1.17;1.08;;;;;;;;;;10975663;26;20037;-59
2024/04/23 02:22:54;;;;;;;0.70;0.70;;;;;;;;;;10975633;26;20657;-59
2024/04/23 02:27:55;;;;;;;0.77;0.77;;;;;;;;;;11024648;26;20024;-59
2024/04/23 02:32:56;;;;;;;0.82;0.82;;;;;;;;;;11048220;26;20037;-57
2024/04/23 02:37:57;;;;;;;1.33;1.00;;;;;;;;;;11050850;26;20051;-58
2024/04/23 02:42:58;;;;;;;0.80;0.80;;;;;;;;;;11042498;26;20001;-58
2024/04/23 02:48:00;;;;;;;1.30;0.90;;;;;;;;;;11049886;26;20029;-58
2024/04/23 02:53:01;;;;;;;1.73;1.00;;;;;;;;;;11047565;26;20083;-57
2024/04/23 02:58:02;;;;;;;0.65;0.65;;;;;;;;;;11026637;26;20001;-58
2024/04/23 03:03:03;;;;;;;1.05;0.77;;;;;;;;;;11042965;26;20078;-57
2024/04/23 03:08:05;;;;;;;0.70;0.70;;;;;;;;;;11068385;26;20038;-57
2024/04/23 03:13:07;;;;;;;0.70;0.70;;;;;;;;;;11038649;26;20001;-58
2024/04/23 03:18:08;;;;;;;0.77;0.77;;;;;;;;;;11049869;26;20020;-58
2024/04/23 03:23:09;;;;;;;0.73;0.70;;;;;;;;;;11034640;26;20510;-58
2024/04/23 03:28:10;;;;;;;2.38;0.90;;;;;;;;;;11032924;26;20029;-58
2024/04/23 03:33:11;;;;;;;0.80;0.70;;;;;;;;;;11048838;26;20004;-57
2024/04/23 03:38:12;;;;;;;0.95;0.85;;;;;;;;;;11045750;26;19997;-57
2024/04/23 03:43:13;;;;;;;0.98;0.98;;;;;;;;;;11031444;26;20009;-58
2024/04/23 03:48:15;;;;;;;2.75;0.80;;;;;;;;;;11046688;26;20013;-57
2024/04/23 03:53:16;;;;;;;1.38;0.85;;;;;;;;;;11039877;26;20503;-57
2024/04/23 03:58:17;;;;;;;3.08;0.90;;;;;;;;;;11053249;26;20025;-58
2024/04/23 04:08:38;;;;;;;0.70;0.70;;;;;;;;;;11042402;26;20001;-58
2024/04/23 04:13:40;;;;;;;0.70;0.70;;;;;;;;;;11048277;26;20023;-57
2024/04/23 04:18:41;;;;;;;0.70;0.70;;;;;;;;;;11047996;26;20001;-56
2024/04/23 04:23:42;;;;;;;1.33;0.88;;;;;;;;;;11051567;26;20001;-59
2024/04/23 04:28:44;;;;;;;0.80;0.80;;;;;;;;;;11053105;26;20016;-59
2024/04/23 04:33:45;;;;;;;0.70;0.70;;;;;;;;;;11056229;26;20472;-58
2024/04/23 04:38:46;;;;;;;1.20;0.80;;;;;;;;;;11058180;26;20004;-57
2024/04/23 04:43:47;;;;;;;0.80;0.80;;;;;;;;;;11057112;26;20087;-55
2024/04/23 04:48:48;;;;;;;1.13;0.88;;;;;;;;;;11049917;26;20051;-58
2024/04/23 04:53:49;;;;;;;0.70;0.70;;;;;;;;;;11043429;26;20005;-58
2024/04/23 04:58:50;;;;;;;0.60;0.60;;;;;;;;;;11045438;26;20052;-57
2024/04/23 05:03:51;;;;;;;0.68;0.68;;;;;;;;;;11057928;26;20682;-58
2024/04/23 05:08:52;;;;;;;10.52;0.85;;;;;;;;;;11055424;26;20037;-57
2024/04/23 05:13:53;;;;;;;0.70;0.70;;;;;;;;;;11047692;26;20539;-57
2024/04/23 05:18:55;;;;;;;10.68;1.00;;;;;;;;;;11052496;26;20041;-57
2024/04/23 05:23:56;;;;;;;0.65;0.65;;;;;;;;;;11062639;26;20001;-56
2024/04/23 05:28:57;;;;;;;0.85;0.85;;;;;;;;;;11052409;26;20102;-57
2024/04/23 05:33:59;;;;;;;0.85;0.73;;;;;;;;;;11057287;26;20440;-56
2024/04/23 05:39:00;;;;;;;0.77;0.77;;;;;;;;;;11069446;26;20649;-56
2024/04/23 05:44:01;;;;;;;2.10;0.70;;;;;;;;;;11077081;26;20020;-56
2024/04/23 05:49:59;;;;;;;4.63;0.80;;;;;;;;;;11084962;26;20015;-55
2024/04/23 05:55:31;;;;;;;8.98;1.00;;;;;;;;;;11081192;26;20036;-58
2024/04/23 06:00:32;;;;;;;0.65;0.65;;;;;;;;;;11071784;26;20019;-56
2024/04/23 06:05:34;;;;;;;1.92;0.90;;;;;;;;;;11046168;26;20013;-62
2024/04/23 06:10:35;;;;;;;1.88;0.80;;;;;;;;;;11110006;26;20020;-58
2024/04/23 06:15:36;;;;;;;2.67;0.70;;;;;;;;;;11082153;26;20389;-58
2024/04/23 06:20:37;;;;;;;3.85;0.70;;;;;;;;;;11090830;26;20032;-58
2024/04/23 06:25:38;;;;;;;3.70;0.82;;;;;;;;;;11048422;26;20001;-57
2024/04/23 06:30:39;;;;;;;1.30;0.80;;;;;;;;;;11045556;26;20032;-58
2024/04/23 06:35:40;;;;;;;2.22;0.90;;;;;;;;;;11030521;26;20111;-59
2024/04/23 06:40:41;;;;;;;0.80;0.80;;;;;;;;;;11047370;26;20001;-60
2024/04/23 06:45:42;;;;;;;6.78;0.90;;;;;;;;;;11039208;26;20001;-58
2024/04/23 06:50:44;;;;;;;1.52;1.30;;;;;;;;;;11037722;26;20078;-58
2024/04/23 06:55:45;;;;;;;0.73;0.70;;;;;;;;;;11049745;26;20514;-58
2024/04/23 07:00:46;;;;;;;0.80;0.80;;;;;;;;;;11047335;26;20004;-59
2024/04/23 07:05:51;;;;;;;1.90;1.17;;;;;;;;;;11055680;26;20036;-58
2024/04/23 07:10:56;;;;;;;0.73;0.70;;;;;;;;;;11047011;26;20004;-58
2024/04/23 07:15:57;;;;;;;0.80;0.80;;;;;;;;;;11050968;26;20161;-58
2024/04/23 07:20:58;;;;;;;1.42;0.80;;;;;;;;;;11031580;26;20007;-58
2024/04/23 07:25:59;;;;;;;0.70;0.70;;;;;;;;;;11057782;26;20369;-58
2024/04/23 07:31:01;;;;;;;1.05;0.95;;;;;;;;;;11057883;26;20014;-58
2024/04/23 07:36:02;;;;;;;0.80;0.80;;;;;;;;;;11059447;26;20274;-58
2024/04/23 07:41:03;;;;;;;0.88;0.77;;;;;;;;;;11093161;26;20111;-58
2024/04/23 07:46:04;;;;;;;0.95;0.95;;;;;;;;;;11059114;26;20000;-59
2024/04/23 07:51:05;;;;;;;0.80;0.80;;;;;;;;;;11047418;26;20108;-58
2024/04/23 07:56:09;;;;;;;2.78;1.00;;;;;;;;;;11067711;26;20196;-58
2024/04/23 08:01:10;;;;;;;1.42;0.98;;;;;;;;;;11076843;26;20002;-58
2024/04/23 08:06:11;;;;;;;0.80;0.80;;;;;;;;;;11087910;26;20436;-58
2024/04/23 08:11:12;;;;;;;2.28;1.02;;;;;;;;;;11061172;26;20033;-58
2024/04/23 08:16:13;;;;;;;1.10;1.08;;;;;;;;;;11043010;26;20053;-58
2024/04/23 08:21:14;;;;;;;1.20;1.10;;;;;;;;;;11054625;26;20349;-58
2024/04/23 08:26:15;;;;;;;1.40;1.00;;;;;;;;;;11077589;26;20000;-59
2024/04/23 08:31:17;;;;;;;1.20;1.10;;;;;;;;;;11065582;26;20004;-58
2024/04/23 08:36:18;;;;;;;1.08;1.08;;;;;;;;;;11082783;26;20074;-61
2024/04/23 08:41:20;;;;;;;3.55;1.17;;;;;;;;;;11060629;26;20085;-58
2024/04/23 08:46:21;;;;;;;1.90;1.20;;;;;;;;;;11059259;26;20202;-59
2024/04/23 08:51:23;;;;;;;1.83;1.25;;;;;;;;;;11071060;26;20012;-59
2024/04/23 08:56:31;;;;;;;1.30;1.20;;;;;;;;;;11057267;26;20032;-58
2024/04/23 09:01:38;;;;;;;3.08;1.58;;;;;;;;;;11037325;26;20054;-58
2024/04/23 09:06:40;;;;;;;1.05;1.00;;;;;;;;;;11052196;26;20005;-58
2024/04/23 09:11:42;;;;;;;2.42;1.10;;;;;;;;;;11022545;26;20011;-58
2024/04/23 09:16:43;;;;;;;2.20;1.10;;;;;;;;;;11052963;26;20020;-58
2024/04/23 09:21:45;;;;;;;3.00;1.30;;;;;;;;;;11036319;26;20441;-58
2024/04/23 09:26:48;;;;;;;1.00;1.00;;;;;;;;;;10953222;26;20450;-58
2024/04/23 09:31:50;;;;;;;1.20;1.08;;;;;;;;;;10956199;26;20117;-58
2024/04/23 09:36:51;;;;;;;1.10;1.10;;;;;;;;;;10975411;26;20365;-59
2024/04/23 09:42:00;;;;;;;1.48;1.05;;;;;;;;;;10978381;26;20005;-59
2024/04/23 09:47:02;;;;;;;1.40;1.20;;;;;;;;;;10977687;26;20457;-58
2024/04/23 09:52:05;;;;;;;1.30;1.20;;;;;;;;;;10975606;26;20057;-58
2024/04/23 09:57:06;;;;;;;1.55;1.13;;;;;;;;;;10941252;26;20335;-58
2024/04/23 10:02:14;;;;;;;1.85;1.30;;;;;;;;;;10961576;26;20075;-58
2024/04/23 10:07:17;;;;;;;1.40;1.30;;;;;;;;;;10977418;26;20022;-60
2024/04/23 10:12:23;;;;;;;1.20;1.10;;;;;;;;;;10979470;26;20086;-59
2024/04/23 10:17:59;;;;;;;1.25;1.10;;;;;;;;;;10977192;26;20006;-58
2024/04/23 10:23:01;;;;;;;1.65;1.20;;;;;;;;;;10986212;26;20108;-58
2024/04/23 10:28:03;;;;;;;1.30;1.20;;;;;;;;;;11047825;26;20029;-58
2024/04/23 10:33:07;;;;;;;1.63;1.08;;;;;;;;;;11030305;26;20028;-58
2024/04/23 10:38:12;;;;;;;1.20;1.02;;;;;;;;;;11000069;26;20009;-59
2024/04/23 10:43:16;;;;;;;1.10;1.00;;;;;;;;;;11018796;26;20005;-58
2024/04/23 10:48:26;;;;;;;1.38;1.20;;;;;;;;;;11050874;26;20001;-60
2024/04/23 10:53:31;;;;;;;1.23;1.13;;;;;;;;;;11071548;26;19996;-58
2024/04/23 10:58:37;;;;;;;1.25;1.17;;;;;;;;;;11050701;26;20020;-61
2024/04/23 11:03:39;;;;;;;8.38;1.30;;;;;;;;;;11051986;26;20012;-59
2024/04/23 11:08:50;;;;;;;1.00;0.90;;;;;;;;;;11055460;26;20099;-60
2024/04/23 11:13:58;;;;;;;1.77;1.30;;;;;;;;;;11055680;26;20017;-59
2024/04/23 11:18:59;;;;;;;1.15;1.15;;;;;;;;;;11057133;26;20082;-59
2024/04/23 11:24:04;;;;;;;0.95;0.95;;;;;;;;;;11041676;26;20467;-59
2024/04/23 11:29:10;;;;;;;1.10;1.10;;;;;;;;;;11023611;26;20004;-59
2024/04/23 11:34:11;;;;;;;1.20;1.10;;;;;;;;;;11022656;26;20372;-59
2024/04/23 11:39:24;;;;;;;1.20;1.10;;;;;;;;;;11053360;26;20104;-58
2024/04/23 11:44:29;;;;;;;1.10;1.10;;;;;;;;;;11062006;26;20013;-59
2024/04/23 11:49:32;;;;;;;1.25;1.10;;;;;;;;;;11051884;26;19997;-59
2024/04/23 11:54:34;;;;;;;1.27;1.17;;;;;;;;;;11049357;26;20013;-59
2024/04/23 11:59:41;;;;;;;1.30;1.20;;;;;;;;;;11053227;26;20435;-59
2024/04/23 12:04:44;;;;;;;2.40;1.65;;;;;;;;;;11051333;26;20000;-59
2024/04/23 12:09:49;;;;;;;2.55;1.40;;;;;;;;;;11016651;26;20005;-58
2024/04/23 12:14:51;;;;;;;1.23;0.93;;;;;;;;;;11047557;26;20440;-59
2024/04/23 12:19:52;;;;;;;1.00;1.00;;;;;;;;;;11048999;26;20034;-59
2024/04/23 12:24:53;;;;;;;1.30;1.20;;;;;;;;;;11037597;26;20437;-59
2024/04/23 12:30:08;;;;;;;1.10;1.10;;;;;;;;;;11029133;26;20547;-59
2024/04/23 12:35:10;;;;;;;1.20;1.10;;;;;;;;;;11045915;26;20000;-61
2024/04/23 12:40:11;;;;;;;1.52;1.20;;;;;;;;;;11055009;26;20098;-58
2024/04/23 12:45:12;;;;;;;1.75;1.20;;;;;;;;;;11053066;26;20075;-58
2024/04/23 12:50:13;;;;;;;1.17;1.10;;;;;;;;;;11051509;26;19997;-61
2024/04/23 12:55:14;;;;;;;2.72;1.20;;;;;;;;;;11010973;26;20019;-58
2024/04/23 13:00:16;;;;;;;1.00;1.00;;;;;;;;;;11060876;26;20445;-59
2024/04/23 13:05:17;;;;;;;1.30;1.20;;;;;;;;;;11051824;26;20036;-59
2024/04/23 13:10:18;;;;;;;1.08;1.02;;;;;;;;;;11053064;26;20032;-58
2024/04/23 13:15:19;;;;;;;1.02;0.90;;;;;;;;;;11013411;26;20334;-58
2024/04/23 13:20:20;;;;;;;1.17;1.10;;;;;;;;;;11064092;26;20095;-58
2024/04/23 13:25:21;;;;;;;3.10;1.10;;;;;;;;;;11000917;26;19998;-61
2024/04/23 13:30:22;;;;;;;1.00;1.00;;;;;;;;;;10991598;26;20088;-61
2024/04/23 13:35:24;;;;;;;1.52;1.20;;;;;;;;;;10981715;26;20017;-61
2024/04/23 13:40:25;;;;;;;1.40;1.25;;;;;;;;;;10970655;26;20438;-62
2024/04/23 13:45:26;;;;;;;1.80;1.20;;;;;;;;;;10974368;26;20002;-62
2024/04/23 13:50:27;;;;;;;1.00;1.00;;;;;;;;;;10958387;26;20080;-61
2024/04/23 13:55:28;;;;;;;3.40;1.20;;;;;;;;;;10976348;26;20049;-61
2024/04/23 14:00:29;;;;;;;3.72;1.23;;;;;;;;;;10968969;26;20087;-61
2024/04/23 14:05:34;;;;;;;0.95;0.95;;;;;;;;;;10978262;26;20013;-61
2024/04/23 14:10:35;;;;;;;1.10;1.10;;;;;;;;;;10973900;26;20033;-62
2024/04/23 14:15:37;;;;;;;1.05;1.00;;;;;;;;;;10950632;26;20438;-61
2024/04/23 14:20:38;;;;;;;0.93;0.90;;;;;;;;;;10976181;26;20006;-62
2024/04/23 14:25:39;;;;;;;1.75;1.10;;;;;;;;;;11001825;26;20082;-61
2024/04/23 14:30:40;;;;;;;1.25;1.10;;;;;;;;;;11026653;26;20017;-60
2024/04/23 14:35:41;;;;;;;1.10;1.10;;;;;;;;;;11045875;26;20421;-61
2024/04/23 14:40:42;;;;;;;1.30;1.00;;;;;;;;;;11047020;26;19997;-62
2024/04/23 14:45:43;;;;;;;1.33;1.17;;;;;;;;;;11050615;26;20113;-61
2024/04/23 14:50:45;;;;;;;0.98;0.98;;;;;;;;;;11047141;26;20456;-62
2024/04/23 14:55:46;;;;;;;2.05;1.23;;;;;;;;;;11066507;26;20044;-61
2024/04/23 15:00:47;;;;;;;2.10;1.40;;;;;;;;;;11047987;26;20107;-60
2024/04/23 15:05:48;;;;;;;1.20;1.10;;;;;;;;;;11020215;26;20020;-62
2024/04/23 15:10:52;;;;;;;1.00;1.00;;;;;;;;;;11048660;26;20476;-61
2024/04/23 15:16:05;;;;;;;1.52;1.42;;;;;;;;;;11045191;26;20009;-62
2024/04/23 15:21:07;;;;;;;2.00;1.45;;;;;;;;;;11048355;26;20372;-62
2024/04/23 15:26:08;;;;;;;1.20;1.10;;;;;;;;;;11065514;26;20019;-62
2024/04/23 15:31:10;;;;;;;2.83;1.10;;;;;;;;;;11045766;26;20001;-61
2024/04/23 15:36:11;;;;;;;1.15;1.05;;;;;;;;;;11048719;26;20050;-61
2024/04/23 15:41:13;;;;;;;1.10;1.00;;;;;;;;;;11049193;26;20012;-60
2024/04/23 15:46:14;;;;;;;1.40;1.17;;;;;;;;;;11041998;26;20094;-62
2024/04/23 15:51:15;;;;;;;1.20;1.20;;;;;;;;;;11048854;26;20001;-61
2024/04/23 15:56:16;;;;;;;1.23;1.13;;;;;;;;;;11055584;26;20005;-61
2024/04/23 16:01:18;;;;;;;1.40;1.05;;;;;;;;;;11054979;26;20322;-61
2024/04/23 16:06:19;;;;;;;0.80;0.80;;;;;;;;;;11070511;26;20012;-61
2024/04/23 16:11:20;;;;;;;1.45;1.13;;;;;;;;;;11051445;26;20338;-61
2024/04/23 16:16:21;;;;;;;1.30;1.20;;;;;;;;;;11054262;26;20005;-62
2024/04/23 16:21:22;;;;;;;1.83;1.40;;;;;;;;;;11053620;26;20123;-61
2024/04/23 16:26:23;;;;;;;0.98;0.95;;;;;;;;;;11058437;26;20021;-61
2024/04/23 16:31:25;;;;;;;1.10;1.10;;;;;;;;;;11051287;26;20402;-61
2024/04/23 16:36:27;;;;;;;1.25;1.15;;;;;;;;;;11051609;26;20011;-61
2024/04/23 16:41:28;;;;;;;1.00;1.00;;;;;;;;;;11058410;26;20018;-60
2024/04/23 16:46:30;;;;;;;1.10;1.10;;;;;;;;;;11061373;26;20008;-61
2024/04/23 16:51:31;;;;;;;1.20;1.10;;;;;;;;;;11057856;26;19997;-61
2024/04/23 16:56:32;;;;;;;1.70;1.40;;;;;;;;;;11069616;26;20036;-61
2024/04/23 17:01:34;;;;;;;2.03;1.50;;;;;;;;;;11072583;26;20012;-62
2024/04/23 17:06:35;;;;;;;1.23;1.13;;;;;;;;;;11066381;26;20103;-61
2024/04/23 17:11:39;;;;;;;1.83;1.33;;;;;;;;;;11050753;26;20039;-62
2024/04/23 17:16:41;;;;;;;3.00;1.60;;;;;;;;;;11049960;26;20006;-62
2024/04/23 17:21:43;;;;;;;1.20;1.10;;;;;;;;;;11051875;26;20001;-63
2024/04/23 17:26:44;;;;;;;1.55;1.45;;;;;;;;;;10995316;26;20078;-63
2024/04/23 17:31:45;;;;;;;1.83;1.00;;;;;;;;;;10982738;26;20445;-63
2024/04/23 17:36:46;;;;;;;2.90;1.30;;;;;;;;;;10972919;26;20006;-62
2024/04/23 17:41:47;;;;;;;4.45;1.30;;;;;;;;;;10994849;26;20082;-62
2024/04/23 17:46:50;;;;;;;2.83;1.20;;;;;;;;;;10979125;26;20001;-62
2024/04/23 17:51:51;;;;;;;3.65;1.38;;;;;;;;;;10976985;26;20508;-63
2024/04/23 17:56:52;;;;;;;2.00;1.10;;;;;;;;;;10972253;27;20075;-62
2024/04/23 18:01:54;;;;;;;1.42;1.30;;;;;;;;;;10973170;26;20033;-61
2024/04/23 18:06:55;;;;;;;7.72;1.30;;;;;;;;;;10976590;26;20129;-63
2024/04/23 18:11:56;;;;;;;2.08;1.25;;;;;;;;;;10975356;26;20016;-62
2024/04/23 18:16:57;;;;;;;2.88;1.50;;;;;;;;;;10959860;27;20001;-60
2024/04/23 18:21:58;;;;;;;1.20;1.10;;;;;;;;;;10957537;26;20005;-62
2024/04/23 18:26:59;;;;;;;1.00;1.00;;;;;;;;;;11030563;26;20002;-62
2024/04/23 18:32:01;;;;;;;1.40;1.25;;;;;;;;;;11025364;26;20001;-62
2024/04/23 18:37:02;;;;;;;2.58;1.33;;;;;;;;;;11052994;26;20366;-62
2024/04/23 18:42:04;;;;;;;2.67;1.40;;;;;;;;;;11041381;26;20014;-60
2024/04/23 18:47:06;;;;;;;1.50;1.35;;;;;;;;;;11045912;26;20012;-62
2024/04/23 18:52:07;;;;;;;2.75;1.50;;;;;;;;;;11045909;26;20052;-61
2024/04/23 18:57:08;;;;;;;1.98;1.20;;;;;;;;;;11009198;26;20029;-62
2024/04/23 19:02:09;;;;;;;1.20;1.10;;;;;;;;;;11028289;26;20001;-61
2024/04/23 19:07:10;;;;;;;1.42;1.33;;;;;;;;;;11050628;26;20037;-62
2024/04/23 19:12:11;;;;;;;1.30;1.20;;;;;;;;;;11042967;26;20053;-59
2024/04/23 19:17:12;;;;;;;4.22;1.30;;;;;;;;;;11027759;26;20473;-62
2024/04/23 19:22:14;;;;;;;1.55;1.23;;;;;;;;;;11067872;26;20008;-61
2024/04/23 19:27:15;;;;;;;1.40;1.30;;;;;;;;;;11057490;26;20064;-62
2024/04/23 19:32:16;;;;;;;1.30;1.20;;;;;;;;;;11032142;26;20025;-62
2024/04/23 19:37:17;;;;;;;2.53;1.35;;;;;;;;;;11053947;26;20103;-63
2024/04/23 19:42:23;;;;;;;1.83;1.17;;;;;;;;;;11072303;26;20485;-63
2024/04/23 19:47:24;;;;;;;2.63;1.40;;;;;;;;;;11041937;26;20009;-62
2024/04/23 19:52:25;;;;;;;1.90;1.40;;;;;;;;;;11022427;26;20001;-61
2024/04/23 20:02:46;;;;;;;1.88;1.02;;;;;;;;;;11040110;26;20005;-62
2024/04/23 20:07:47;;;;;;;1.55;1.45;;;;;;;;;;11088108;26;20029;-62
2024/04/23 20:12:48;;;;;;;1.38;1.27;;;;;;;;;;11066846;26;20005;-59
2024/04/23 20:17:49;;;;;;;2.95;1.40;;;;;;;;;;11061684;26;20000;-62
2024/04/23 20:22:50;;;;;;;1.40;1.30;;;;;;;;;;11086415;26;20014;-63
2024/04/23 20:27:52;;;;;;;1.30;1.20;;;;;;;;;;11077296;26;20107;-61
2024/04/23 20:32:53;;;;;;;4.70;1.58;;;;;;;;;;11072110;26;20020;-62
2024/04/23 20:37:54;;;;;;;4.20;1.33;;;;;;;;;;11073494;26;20028;-62
2024/04/23 20:42:55;;;;;;;1.55;1.42;;;;;;;;;;11098306;26;20011;-62
2024/04/23 20:47:56;;;;;;;2.35;1.50;;;;;;;;;;11038094;26;20468;-61
2024/04/23 20:52:58;;;;;;;3.00;1.40;;;;;;;;;;11052432;26;20103;-61
2024/04/23 20:57:59;;;;;;;1.63;1.52;;;;;;;;;;11052923;26;20041;-62
2024/04/23 21:03:00;;;;;;;1.50;1.27;;;;;;;;;;11058931;26;20015;-62
2024/04/23 21:08:01;;;;;;;2.25;1.30;;;;;;;;;;11051719;26;20065;-62
2024/04/23 21:13:03;;;;;;;1.20;1.20;;;;;;;;;;11044316;26;20001;-62
2024/04/23 21:18:04;;;;;;;1.73;1.48;;;;;;;;;;11042417;26;20004;-61
2024/04/23 21:23:05;;;;;;;1.48;1.38;;;;;;;;;;11055873;26;20337;-62
2024/04/23 21:28:06;;;;;;;3.25;1.52;;;;;;;;;;11060763;26;20288;-62
2024/04/23 21:33:07;;;;;;;1.65;1.52;;;;;;;;;;11040771;26;20415;-62
2024/04/23 21:38:09;;;;;;;1.50;1.40;;;;;;;;;;11050625;26;20055;-59
2024/04/23 21:43:10;;;;;;;1.38;1.30;;;;;;;;;;11052733;26;20465;-61
2024/04/23 21:48:11;;;;;;;8.30;2.13;;;;;;;;;;11049541;26;20078;-61
2024/04/23 21:53:12;;;;;;;1.45;1.30;;;;;;;;;;11046280;26;20479;-62
2024/04/23 21:58:13;;;;;;;1.20;1.10;;;;;;;;;;11045442;26;19997;-64
2024/04/23 22:03:14;;;;;;;1.70;1.45;;;;;;;;;;11063409;26;20017;-63
2024/04/23 22:08:15;;;;;;;3.83;1.90;;;;;;;;;;11049622;26;20452;-64
2024/04/23 22:13:16;;;;;;;3.47;1.77;;;;;;;;;;11057265;26;20032;-64
2024/04/23 22:18:18;;;;;;;3.45;1.83;;;;;;;;;;11048830;26;20001;-64
2024/04/23 22:23:19;;;;;;;3.95;1.75;;;;;;;;;;11034713;26;20100;-64
2024/04/23 22:28:20;;;;;;;6.38;1.95;;;;;;;;;;10988727;26;20524;-64
2024/04/23 22:33:21;;;;;;;3.30;1.48;;;;;;;;;;10980061;26;20034;-65
2024/04/23 22:38:22;;;;;;;3.70;1.70;;;;;;;;;;10989527;26;20412;-65
2024/04/23 22:43:24;;;;;;;2.05;1.58;;;;;;;;;;10964216;26;20017;-64
2024/04/23 22:48:25;;;;;;;1.40;1.30;;;;;;;;;;10993896;26;20006;-65
2024/04/23 22:53:26;;;;;;;3.42;1.90;;;;;;;;;;10984825;26;19997;-64
2024/04/23 22:58:27;;;;;;;2.65;1.52;;;;;;;;;;10995196;26;20024;-64
2024/04/23 23:03:29;;;;;;;5.13;1.73;;;;;;;;;;10959043;26;20009;-65
2024/04/23 23:08:30;;;;;;;1.75;1.38;;;;;;;;;;10983596;26;20073;-64
2024/04/23 23:13:31;;;;;;;3.15;1.70;;;;;;;;;;10979418;26;20322;-63
2024/04/23 23:18:32;;;;;;;2.53;1.67;;;;;;;;;;10981034;27;20072;-64
2024/04/23 23:23:33;;;;;;;2.63;1.60;;;;;;;;;;10992326;26;20013;-64
2024/04/23 23:28:34;;;;;;;2.22;1.90;;;;;;;;;;10997202;26;20037;-65
2024/04/23 23:33:35;;;;;;;3.78;1.70;;;;;;;;;;10985083;26;20112;-64
2024/04/23 23:38:36;;;;;;;3.35;1.73;;;;;;;;;;10983827;26;20034;-63
2024/04/23 23:43:38;;;;;;;1.92;1.80;;;;;;;;;;10992767;26;20593;-65
2024/04/23 23:48:39;;;;;;;2.97;1.55;;;;;;;;;;10982691;26;20014;-64
2024/04/23 23:53:40;;;;;;;1.73;1.58;;;;;;;;;;10986304;26;20449;-63
2024/04/23 23:58:41;;;;;;;4.15;1.75;;;;;;;;;;10985913;26;20070;-65
